Time;durP1;ratioP1;P1;durP2;ratioP2;P2;SDS_P1;SDS_P2;PMS_P1;PMS_P2;Temp;Humidity;BMP_temperature;BMP_pressure;BME280_temperature;BME280_humidity;BME280_pressure;Samples;Min_cycle;Max_cycle;Signal;HPM_P1;HPM_P2
2023/01/07 00:01:10;;;;;;;1.30;1.20;;;8.00;97.30;;;;;;4970844;28;20441;-88
2023/01/07 00:03:36;;;;;;;4.33;1.30;;;8.00;97.30;;;;;;4971563;28;20429;-88
2023/01/07 00:06:07;;;;;;;1.67;1.30;;;8.10;97.30;;;;;;4969782;28;20480;-89
2023/01/07 00:08:37;;;;;;;1.50;1.23;;;8.10;97.30;;;;;;4970192;28;20799;-89
2023/01/07 00:11:04;;;;;;;1.80;1.70;;;8.10;97.30;;;;;;4970178;28;20569;-88
2023/01/07 00:13:30;;;;;;;2.00;1.87;;;8.10;97.30;;;;;;4969518;28;20422;-89
2023/01/07 00:16:04;;;;;;;1.10;1.00;;;8.10;97.30;;;;;;4967062;28;20448;-88
2023/01/07 00:18:29;;;;;;;1.57;1.47;;;8.00;97.30;;;;;;4969051;28;20194;-88
2023/01/07 00:20:56;;;;;;;1.67;1.57;;;8.00;97.30;;;;;;4971512;28;20977;-89
2023/01/07 00:23:23;;;;;;;1.83;1.17;;;7.90;97.30;;;;;;4969355;28;20638;-88
2023/01/07 00:25:49;;;;;;;1.10;1.00;;;7.80;97.30;;;;;;4968394;28;20497;-89
2023/01/07 00:28:14;;;;;;;1.20;1.10;;;7.70;97.30;;;;;;4968354;28;20481;-88
2023/01/07 00:30:40;;;;;;;1.33;1.23;;;7.70;97.30;;;;;;4969958;28;20425;-88
2023/01/07 00:33:06;;;;;;;2.07;1.93;;;7.60;97.30;;;;;;4969795;28;20808;-88
2023/01/07 00:35:33;;;;;;;1.10;1.00;;;7.60;97.30;;;;;;4971146;28;20203;-88
2023/01/07 00:37:58;;;;;;;1.30;1.20;;;7.60;97.30;;;;;;4958743;28;20183;-88
2023/01/07 00:40:24;;;;;;;1.93;1.57;;;7.60;97.30;;;;;;4964168;28;20770;-89
2023/01/07 00:43:03;;;;;;;2.43;1.50;;;7.60;97.30;;;;;;4968504;28;20676;-89
2023/01/07 00:45:31;;;;;;;1.73;1.60;;;7.60;97.30;;;;;;4966402;28;20241;-89
2023/01/07 00:48:01;;;;;;;1.47;1.37;;;7.60;97.30;;;;;;4969416;28;20845;-88
2023/01/07 00:50:31;;;;;;;2.90;2.70;;;7.50;97.30;;;;;;4981211;28;20437;-89
2023/01/07 00:52:57;;;;;;;2.00;1.43;;;7.50;97.30;;;;;;4973020;28;20440;-89
2023/01/07 00:55:24;;;;;;;1.33;1.23;;;7.50;97.30;;;;;;4974317;28;20446;-88
2023/01/07 00:57:49;;;;;;;1.20;1.10;;;7.50;97.30;;;;;;4973349;28;20425;-88
2023/01/07 01:00:17;;;;;;;1.27;1.17;;;7.60;97.30;;;;;;4973184;28;20500;-89
2023/01/07 01:02:44;;;;;;;1.10;1.00;;;7.60;97.30;;;;;;4971784;28;20214;-89
2023/01/07 01:05:10;;;;;;;2.30;2.13;;;7.60;97.30;;;;;;4971324;28;20520;-89
2023/01/07 01:07:36;;;;;;;1.40;1.30;;;7.50;97.30;;;;;;4971335;28;20871;-89
2023/01/07 01:10:03;;;;;;;1.30;1.20;;;7.50;97.30;;;;;;4971773;28;20932;-89
2023/01/07 01:12:28;;;;;;;1.27;1.17;;;7.50;97.30;;;;;;4971357;28;20471;-89
2023/01/07 01:14:54;;;;;;;1.00;0.90;;;7.40;97.30;;;;;;4971625;28;20441;-88
2023/01/07 01:17:20;;;;;;;1.20;1.10;;;7.40;97.30;;;;;;4971449;28;20689;-88
2023/01/07 01:19:46;;;;;;;1.10;1.00;;;7.40;97.30;;;;;;4972359;28;20258;-89
2023/01/07 01:22:12;;;;;;;1.97;1.87;;;7.40;97.30;;;;;;4971423;28;21027;-88
2023/01/07 01:24:37;;;;;;;1.00;0.90;;;7.30;97.30;;;;;;4971915;28;20210;-88
2023/01/07 01:27:03;;;;;;;1.67;1.57;;;7.30;97.30;;;;;;4976872;28;20182;-89
2023/01/07 01:29:28;;;;;;;1.57;1.47;;;7.30;97.30;;;;;;4972622;28;20194;-89
2023/01/07 01:31:54;;;;;;;3.13;1.87;;;7.20;97.30;;;;;;4972770;28;20183;-89
2023/01/07 01:34:19;;;;;;;1.00;0.90;;;7.20;97.30;;;;;;4972793;28;20266;-88
2023/01/07 01:36:45;;;;;;;3.23;1.93;;;7.10;97.30;;;;;;4972497;28;20662;-89
2023/01/07 01:39:10;;;;;;;1.50;1.40;;;7.10;97.30;;;;;;4975227;28;20662;-89
2023/01/07 01:41:36;;;;;;;1.60;1.50;;;7.10;97.30;;;;;;4972199;28;20183;-88
2023/01/07 01:44:21;;;;;;;1.90;1.13;;;7.10;97.30;;;;;;4972271;28;20568;-89
2023/01/07 01:46:47;;;;;;;2.50;1.57;;;7.10;97.30;;;;;;4971951;28;20210;-88
2023/01/07 01:49:31;;;;;;;1.20;1.10;;;7.00;97.30;;;;;;4973011;28;20466;-88
2023/01/07 01:52:12;;;;;;;1.20;1.10;;;6.90;97.30;;;;;;4967148;28;20422;-88
2023/01/07 01:54:40;;;;;;;2.27;2.07;;;6.90;97.30;;;;;;4989098;28;20948;-88
2023/01/07 01:57:07;;;;;;;5.80;2.07;;;6.90;97.30;;;;;;4991362;28;20417;-88
2023/01/07 01:59:38;;;;;;;1.00;1.00;;;6.90;97.30;;;;;;4990014;28;20421;-88
2023/01/07 02:02:05;;;;;;;1.63;1.20;;;6.90;97.30;;;;;;4976261;28;20769;-88
2023/01/07 02:04:31;;;;;;;2.67;1.80;;;6.80;97.30;;;;;;4973589;28;20410;-89
2023/01/07 02:07:02;;;;;;;1.00;0.90;;;6.80;97.30;;;;;;4972015;28;20884;-88
2023/01/07 02:09:28;;;;;;;1.30;1.20;;;6.80;97.30;;;;;;4972020;28;20183;-88
2023/01/07 02:12:22;;;;;;;1.27;1.20;;;6.80;97.30;;;;;;4971362;28;20437;-88
2023/01/07 02:15:09;;;;;;;1.80;1.20;;;6.80;97.30;;;;;;4970188;28;20206;-89
2023/01/07 02:18:12;;;;;;;1.47;1.40;;;6.80;97.30;;;;;;4970251;28;20417;-88
2023/01/07 02:20:40;;;;;;;4.47;1.60;;;6.70;97.30;;;;;;4970068;28;20421;-88
2023/01/07 02:23:34;;;;;;;1.30;1.20;;;6.70;97.30;;;;;;4970358;28;20413;-88
2023/01/07 02:26:25;;;;;;;1.20;1.10;;;6.60;97.30;;;;;;4969882;28;20477;-89
2023/01/07 02:29:27;;;;;;;1.70;1.53;;;6.60;97.30;;;;;;4972046;28;20517;-88
2023/01/07 02:32:19;;;;;;;1.00;0.90;;;6.70;97.30;;;;;;4971862;28;20445;-88
2023/01/07 02:35:13;;;;;;;1.17;1.07;;;6.60;97.30;;;;;;4971522;28;20432;-88
2023/01/07 02:38:05;;;;;;;1.00;1.00;;;6.60;97.30;;;;;;4971853;28;20428;-89
2023/01/07 02:40:42;;;;;;;0.93;0.83;;;6.60;97.30;;;;;;4971553;28;20433;-88
2023/01/07 02:43:07;;;;;;;3.27;2.23;;;6.50;97.30;;;;;;4971783;28;20421;-88
2023/01/07 02:45:43;;;;;;;1.63;1.20;;;6.50;97.30;;;;;;4973370;28;20991;-88
2023/01/07 02:48:12;;;;;;;1.33;1.33;;;6.50;97.30;;;;;;4974711;28;20210;-88
2023/01/07 02:50:37;;;;;;;1.50;1.40;;;6.40;97.30;;;;;;4974960;28;20433;-88
2023/01/07 02:53:05;;;;;;;1.83;1.17;;;6.40;97.30;;;;;;4982903;28;20510;-90
2023/01/07 02:56:05;;;;;;;7.20;3.00;;;6.40;97.30;;;;;;4994837;28;20198;-88
2023/01/07 02:59:02;;;;;;;1.33;1.23;;;6.40;97.30;;;;;;4971073;28;20476;-88
2023/01/07 03:01:50;;;;;;;1.30;1.10;;;6.40;97.30;;;;;;4977265;28;20490;-89
2023/01/07 03:04:54;;;;;;;1.17;1.07;;;6.40;97.30;;;;;;4982138;28;20420;-90
2023/01/07 03:07:40;;;;;;;1.40;1.30;;;6.40;97.30;;;;;;4972923;28;20452;-88
2023/01/07 03:10:14;;;;;;;1.00;0.90;;;6.50;97.30;;;;;;5014596;28;20449;-89
2023/01/07 03:12:46;;;;;;;1.13;1.03;;;6.50;97.30;;;;;;5015270;28;20424;-90
2023/01/07 03:15:17;;;;;;;1.47;1.30;;;6.60;97.30;;;;;;5007827;28;20439;-90
2023/01/07 03:18:07;;;;;;;1.90;1.17;;;6.60;97.30;;;;;;4996432;28;20950;-88
2023/01/07 03:20:35;;;;;;;1.10;1.00;;;6.60;97.30;;;;;;4955025;28;20796;-89
2023/01/07 03:23:05;;;;;;;1.07;0.90;;;6.70;97.30;;;;;;4950989;28;20415;-88
2023/01/07 03:25:33;;;;;;;1.20;1.07;;;6.80;97.30;;;;;;4950531;28;20504;-88
2023/01/07 03:27:59;;;;;;;1.23;1.13;;;6.80;97.30;;;;;;4949915;29;20423;-88
2023/01/07 03:30:26;;;;;;;1.00;0.90;;;6.90;97.30;;;;;;4950845;28;20521;-88
2023/01/07 03:33:13;;;;;;;1.00;0.90;;;7.00;97.30;;;;;;4950011;28;20414;-88
2023/01/07 03:35:44;;;;;;;1.33;1.27;;;7.00;97.30;;;;;;4969876;28;20972;-88
2023/01/07 03:38:11;;;;;;;1.63;1.20;;;7.10;97.30;;;;;;4970579;28;20418;-88
2023/01/07 03:40:37;;;;;;;1.43;1.30;;;7.10;97.30;;;;;;4969966;28;20443;-88
2023/01/07 03:43:03;;;;;;;1.20;1.10;;;7.20;97.30;;;;;;4970787;28;20468;-88
2023/01/07 03:45:29;;;;;;;1.33;1.23;;;7.30;97.30;;;;;;4970144;28;20213;-88
2023/01/07 03:47:55;;;;;;;1.10;1.00;;;7.30;97.30;;;;;;4970437;28;20422;-88
2023/01/07 03:50:21;;;;;;;1.20;1.10;;;7.40;97.30;;;;;;4970060;28;20425;-88
2023/01/07 03:52:48;;;;;;;1.43;1.20;;;7.40;97.30;;;;;;4970723;28;20414;-88
2023/01/07 03:55:14;;;;;;;1.60;1.50;;;7.40;97.30;;;;;;4970417;28;20198;-88
2023/01/07 03:57:39;;;;;;;1.07;0.97;;;7.50;97.30;;;;;;4970402;28;20406;-88
2023/01/07 04:00:07;;;;;;;1.30;1.20;;;7.50;97.30;;;;;;4969610;28;20182;-89
2023/01/07 04:02:33;;;;;;;1.00;0.90;;;7.50;97.30;;;;;;4950103;29;20175;-88
2023/01/07 04:04:58;;;;;;;1.17;1.17;;;7.50;97.30;;;;;;4954310;29;20565;-89
2023/01/07 04:07:24;;;;;;;1.00;0.90;;;7.50;97.30;;;;;;5007045;23;20232;-86
2023/01/07 04:09:49;;;;;;;1.00;0.90;;;7.50;97.30;;;;;;4996954;28;20212;-88
2023/01/07 04:12:16;;;;;;;1.17;1.03;;;7.50;97.30;;;;;;4998547;28;20174;-90
2023/01/07 04:14:41;;;;;;;1.00;0.90;;;7.50;97.30;;;;;;4988626;28;20655;-88
2023/01/07 04:17:07;;;;;;;1.07;0.97;;;7.50;97.30;;;;;;5005648;28;20611;-88
2023/01/07 04:19:32;;;;;;;1.10;1.00;;;7.50;97.30;;;;;;4989517;28;20206;-87
2023/01/07 04:21:58;;;;;;;4.00;1.10;;;7.60;97.30;;;;;;4990145;28;20177;-87
2023/01/07 04:24:23;;;;;;;1.00;0.90;;;7.60;97.30;;;;;;4993489;28;20189;-87
2023/01/07 04:26:49;;;;;;;1.27;1.17;;;7.70;97.30;;;;;;4994293;28;20248;-87
2023/01/07 04:29:14;;;;;;;1.00;0.90;;;7.70;97.30;;;;;;4983116;28;20568;-87
2023/01/07 04:31:40;;;;;;;1.63;1.53;;;7.70;97.30;;;;;;4972075;28;20179;-87
2023/01/07 04:34:05;;;;;;;1.20;1.10;;;7.70;97.30;;;;;;4973270;28;20183;-88
2023/01/07 04:36:31;;;;;;;1.07;0.97;;;7.80;97.30;;;;;;4991318;28;20585;-87
2023/01/07 04:38:56;;;;;;;3.17;2.23;;;7.80;97.30;;;;;;4991627;28;20189;-88
2023/01/07 04:41:22;;;;;;;1.20;1.10;;;7.90;97.30;;;;;;4991266;28;20190;-89
2023/01/07 04:43:47;;;;;;;0.90;0.90;;;7.90;97.30;;;;;;4989718;28;20177;-86
2023/01/07 04:46:13;;;;;;;1.10;1.00;;;7.90;97.30;;;;;;4991880;28;20764;-88
2023/01/07 04:48:38;;;;;;;1.37;1.30;;;7.90;97.30;;;;;;4990997;28;20233;-87
2023/01/07 04:51:04;;;;;;;0.80;0.70;;;7.90;97.30;;;;;;4991159;28;20188;-88
2023/01/07 04:53:29;;;;;;;1.20;1.10;;;7.90;97.30;;;;;;4986347;28;20179;-86
2023/01/07 04:55:55;;;;;;;1.20;1.10;;;8.00;97.30;;;;;;4984482;28;20676;-88
2023/01/07 04:58:20;;;;;;;1.30;1.20;;;8.00;97.30;;;;;;4991257;28;20182;-86
2023/01/07 05:00:46;;;;;;;1.03;0.93;;;8.10;97.30;;;;;;4991353;28;20186;-87
2023/01/07 05:03:12;;;;;;;1.00;0.90;;;8.20;97.30;;;;;;4992293;28;20173;-87
2023/01/07 05:05:37;;;;;;;1.10;1.00;;;8.20;97.30;;;;;;4992444;28;20555;-87
2023/01/07 05:08:03;;;;;;;1.00;0.90;;;8.20;97.30;;;;;;4992997;28;20228;-90
2023/01/07 05:10:29;;;;;;;1.00;0.90;;;8.30;97.30;;;;;;4992738;28;20182;-86
2023/01/07 05:12:54;;;;;;;1.33;1.33;;;8.30;97.30;;;;;;4992758;28;20602;-91
2023/01/07 05:15:20;;;;;;;1.30;1.20;;;8.30;97.30;;;;;;4975189;28;20417;-86
2023/01/07 05:17:45;;;;;;;1.23;1.13;;;8.30;97.30;;;;;;4972684;28;20258;-87
2023/01/07 05:20:12;;;;;;;1.33;1.10;;;8.40;97.30;;;;;;4972386;28;20558;-86
2023/01/07 05:22:37;;;;;;;1.10;1.00;;;8.40;97.30;;;;;;4972756;28;20183;-87
2023/01/07 05:25:03;;;;;;;1.10;1.00;;;8.50;97.30;;;;;;4972695;28;20608;-86
2023/01/07 05:27:29;;;;;;;1.53;1.43;;;8.50;97.30;;;;;;4972713;28;20202;-86
2023/01/07 05:29:54;;;;;;;1.10;1.00;;;8.60;97.30;;;;;;4972588;28;20704;-87
2023/01/07 05:32:20;;;;;;;1.10;1.00;;;8.60;97.30;;;;;;4972705;28;20182;-88
2023/01/07 05:34:45;;;;;;;1.07;0.97;;;8.60;97.30;;;;;;4971356;28;20208;-87
2023/01/07 05:37:11;;;;;;;0.90;0.80;;;8.60;97.30;;;;;;4975948;28;20205;-87
2023/01/07 05:39:36;;;;;;;1.10;1.00;;;8.70;97.30;;;;;;4992138;28;20225;-88
2023/01/07 05:42:02;;;;;;;0.90;0.80;;;8.70;97.30;;;;;;4990758;28;20236;-88
2023/01/07 05:44:27;;;;;;;1.00;0.90;;;8.70;97.30;;;;;;4990694;28;20178;-87
2023/01/07 05:46:53;;;;;;;1.10;1.00;;;8.70;97.30;;;;;;4982198;28;20190;-86
2023/01/07 05:49:18;;;;;;;1.37;1.10;;;8.80;97.30;;;;;;4991953;28;20178;-87
2023/01/07 05:51:43;;;;;;;1.10;1.00;;;8.80;97.30;;;;;;4992932;28;20256;-90
2023/01/07 05:54:09;;;;;;;0.83;0.73;;;8.80;97.30;;;;;;4994498;28;20320;-88
2023/01/07 05:56:35;;;;;;;1.13;1.03;;;8.80;97.30;;;;;;4993857;28;20289;-87
2023/01/07 05:59:00;;;;;;;1.10;1.00;;;8.80;97.30;;;;;;4992074;28;20633;-89
2023/01/07 06:01:26;;;;;;;1.63;1.53;;;8.80;97.30;;;;;;4990605;28;20178;-87
2023/01/07 06:03:52;;;;;;;1.13;1.10;;;8.80;97.30;;;;;;4980485;28;20194;-87
2023/01/07 06:06:17;;;;;;;4.40;1.43;;;8.80;97.30;;;;;;4977576;28;20309;-86
2023/01/07 06:08:43;;;;;;;1.00;0.90;;;8.80;97.30;;;;;;4982045;28;20558;-88
2023/01/07 06:11:09;;;;;;;1.20;1.10;;;8.80;97.30;;;;;;4981092;28;20185;-88
2023/01/07 06:13:35;;;;;;;1.70;1.33;;;8.90;97.30;;;;;;4986772;28;20248;-87
2023/01/07 06:16:03;;;;;;;2.40;1.10;;;8.90;97.30;;;;;;4979351;28;20235;-87
2023/01/07 06:18:28;;;;;;;0.90;0.80;;;8.90;97.30;;;;;;4982890;28;20183;-86
2023/01/07 06:20:54;;;;;;;0.90;0.80;;;8.90;97.30;;;;;;4979336;28;20986;-90
2023/01/07 06:23:19;;;;;;;1.00;0.90;;;8.90;97.30;;;;;;4979141;28;20653;-88
2023/01/07 06:25:45;;;;;;;0.90;0.80;;;8.90;97.30;;;;;;4984749;28;20201;-86
2023/01/07 06:28:10;;;;;;;1.53;1.43;;;8.90;97.30;;;;;;4981687;28;20249;-87
2023/01/07 06:30:36;;;;;;;0.90;0.80;;;8.90;97.30;;;;;;4979288;28;20182;-88
2023/01/07 06:33:04;;;;;;;1.17;1.10;;;8.90;97.30;;;;;;4981122;28;20178;-86
2023/01/07 06:35:30;;;;;;;1.10;1.00;;;8.90;97.30;;;;;;4978422;28;20178;-87
2023/01/07 06:37:55;;;;;;;0.90;0.80;;;8.90;97.30;;;;;;4978389;28;20456;-87
2023/01/07 06:40:21;;;;;;;1.10;1.00;;;8.90;97.30;;;;;;4979073;28;20454;-89
2023/01/07 06:42:46;;;;;;;0.90;0.80;;;8.90;97.30;;;;;;4978897;28;20179;-87
2023/01/07 06:45:12;;;;;;;1.00;0.90;;;8.90;97.30;;;;;;4981297;28;20674;-88
2023/01/07 06:47:38;;;;;;;1.00;1.00;;;8.90;97.30;;;;;;4978780;28;20190;-87
2023/01/07 06:50:03;;;;;;;1.27;1.00;;;8.90;97.30;;;;;;4980970;28;20273;-87
2023/01/07 06:52:29;;;;;;;2.03;1.20;;;8.90;97.30;;;;;;4979777;28;20170;-87
2023/01/07 06:54:54;;;;;;;1.10;1.00;;;8.90;97.30;;;;;;4978913;28;20206;-89
2023/01/07 06:57:20;;;;;;;1.00;0.90;;;8.90;97.30;;;;;;4980318;28;20284;-88
2023/01/07 06:59:45;;;;;;;1.00;0.90;;;8.80;97.30;;;;;;4978250;28;20236;-86
2023/01/07 07:02:23;;;;;;;0.90;0.80;;;8.80;97.30;;;;;;4979945;28;20245;-88
2023/01/07 07:04:49;;;;;;;1.23;1.13;;;8.80;97.30;;;;;;5000649;28;20314;-88
2023/01/07 07:07:15;;;;;;;1.93;1.80;;;8.80;97.30;;;;;;4977832;28;20489;-89
2023/01/07 07:09:41;;;;;;;1.37;1.33;;;8.70;97.30;;;;;;4980962;28;20225;-89
2023/01/07 07:12:07;;;;;;;0.90;0.80;;;8.70;97.30;;;;;;4976973;28;20422;-89
2023/01/07 07:14:33;;;;;;;1.10;1.00;;;8.70;97.30;;;;;;4985491;28;20432;-87
2023/01/07 07:16:58;;;;;;;1.10;1.00;;;8.60;97.30;;;;;;5003083;28;20436;-93
2023/01/07 07:19:24;;;;;;;1.90;1.20;;;8.60;97.30;;;;;;5002221;28;20189;-91
2023/01/07 07:21:49;;;;;;;1.10;1.00;;;8.60;97.30;;;;;;4999728;28;20186;-91
2023/01/07 07:24:15;;;;;;;1.03;0.93;;;8.60;97.30;;;;;;4997178;28;20194;-89
2023/01/07 07:26:41;;;;;;;1.20;1.10;;;8.60;97.30;;;;;;5001353;28;20265;-93
2023/01/07 07:29:10;;;;;;;1.00;0.90;;;8.60;97.30;;;;;;4992297;28;20173;-90
2023/01/07 07:31:36;;;;;;;0.80;0.70;;;8.60;97.30;;;;;;4982321;28;20642;-86
2023/01/07 07:34:02;;;;;;;1.10;1.00;;;8.60;97.30;;;;;;4983668;28;21023;-87
2023/01/07 07:36:27;;;;;;;1.10;1.00;;;8.60;97.30;;;;;;4977231;28;20461;-87
2023/01/07 07:38:53;;;;;;;1.00;0.90;;;8.60;97.30;;;;;;4981123;28;20335;-88
2023/01/07 07:41:18;;;;;;;1.10;1.00;;;8.60;97.30;;;;;;4980548;28;20703;-85
2023/01/07 07:43:44;;;;;;;1.30;1.20;;;8.60;97.30;;;;;;4982395;28;20174;-87
2023/01/07 07:46:09;;;;;;;1.03;0.93;;;8.60;97.30;;;;;;4983850;28;20716;-87
2023/01/07 07:48:35;;;;;;;1.57;1.47;;;8.60;97.30;;;;;;4980061;28;20170;-89
2023/01/07 07:51:00;;;;;;;0.90;0.80;;;8.60;97.30;;;;;;4982619;28;20206;-87
2023/01/07 07:53:26;;;;;;;1.30;1.20;;;8.60;97.30;;;;;;4981352;28;20184;-87
2023/01/07 07:55:52;;;;;;;1.00;0.90;;;8.60;97.30;;;;;;4985098;28;20202;-88
2023/01/07 07:58:18;;;;;;;1.03;0.93;;;8.60;97.30;;;;;;4973565;28;20280;-88
2023/01/07 08:00:44;;;;;;;1.10;1.00;;;8.60;97.30;;;;;;4982172;28;20447;-87
2023/01/07 08:03:10;;;;;;;0.90;0.80;;;8.60;97.30;;;;;;4985674;28;20958;-87
2023/01/07 08:05:40;;;;;;;1.20;1.10;;;8.70;97.30;;;;;;4981447;28;20216;-86
2023/01/07 08:08:07;;;;;;;2.00;1.00;;;8.70;97.30;;;;;;4985864;28;20440;-87
2023/01/07 08:10:32;;;;;;;1.03;1.00;;;8.70;97.30;;;;;;4984328;28;20500;-87
2023/01/07 08:12:58;;;;;;;1.67;1.60;;;8.70;97.30;;;;;;4985338;28;20513;-88
2023/01/07 08:15:23;;;;;;;1.10;1.00;;;8.70;97.30;;;;;;4990556;28;20680;-89
2023/01/07 08:17:59;;;;;;;1.10;1.00;;;8.70;97.30;;;;;;4992734;28;20269;-87
2023/01/07 08:20:25;;;;;;;1.17;1.10;;;8.70;97.30;;;;;;4984060;28;20236;-87
2023/01/07 08:22:50;;;;;;;1.50;1.40;;;8.70;97.30;;;;;;5003321;28;20834;-87
2023/01/07 08:25:16;;;;;;;3.43;1.47;;;8.80;97.30;;;;;;4987962;28;20521;-90
2023/01/07 08:27:41;;;;;;;0.90;0.80;;;8.80;97.30;;;;;;4989885;28;20684;-87
2023/01/07 08:30:07;;;;;;;1.20;1.10;;;8.80;97.30;;;;;;4982478;28;20272;-87
2023/01/07 08:32:33;;;;;;;1.20;1.10;;;8.80;97.30;;;;;;4983783;28;20432;-87
2023/01/07 08:34:58;;;;;;;0.90;0.80;;;8.80;97.30;;;;;;4983771;28;20424;-88
2023/01/07 08:37:24;;;;;;;1.40;1.03;;;8.80;97.30;;;;;;4982030;28;21007;-87
2023/01/07 08:39:49;;;;;;;1.07;0.97;;;8.80;97.30;;;;;;4981809;28;20170;-87
2023/01/07 08:42:14;;;;;;;1.30;1.20;;;8.80;97.30;;;;;;4974118;28;20229;-86
2023/01/07 08:44:40;;;;;;;1.00;0.90;;;8.80;97.30;;;;;;4974810;28;20194;-85
2023/01/07 08:47:05;;;;;;;0.97;0.87;;;8.80;97.30;;;;;;4975183;28;20222;-86
2023/01/07 08:49:31;;;;;;;1.20;1.10;;;8.80;97.30;;;;;;4975241;28;20597;-87
2023/01/07 08:51:56;;;;;;;0.97;0.87;;;8.80;97.30;;;;;;4975299;28;20190;-87
2023/01/07 08:54:22;;;;;;;1.00;0.90;;;8.90;97.30;;;;;;4976267;28;20175;-89
2023/01/07 08:56:47;;;;;;;1.10;1.00;;;8.90;97.30;;;;;;4975045;28;20206;-85
2023/01/07 08:59:13;;;;;;;1.20;1.10;;;8.90;97.30;;;;;;4975117;28;20645;-87
2023/01/07 09:01:38;;;;;;;1.07;1.00;;;9.00;97.30;;;;;;4975077;28;20186;-87
2023/01/07 09:04:04;;;;;;;2.67;1.33;;;9.00;97.30;;;;;;4974725;28;20178;-87
2023/01/07 09:06:29;;;;;;;4.10;1.17;;;9.10;97.30;;;;;;4974666;28;20234;-87
2023/01/07 09:08:55;;;;;;;1.00;0.80;;;9.10;97.30;;;;;;4974573;28;20182;-86
2023/01/07 09:11:20;;;;;;;0.90;0.80;;;9.20;97.30;;;;;;4974827;28;20182;-87
2023/01/07 09:13:46;;;;;;;1.93;1.83;;;9.20;97.30;;;;;;4974386;28;20183;-88
2023/01/07 09:16:11;;;;;;;0.90;0.80;;;9.40;97.30;;;;;;4973900;28;20206;-89
2023/01/07 09:18:37;;;;;;;1.00;0.90;;;9.50;97.30;;;;;;4978539;28;20191;-87
2023/01/07 09:21:03;;;;;;;1.00;0.90;;;9.50;97.30;;;;;;4979281;28;20712;-85
2023/01/07 09:23:28;;;;;;;1.10;1.00;;;9.60;97.30;;;;;;4983383;28;20268;-89
2023/01/07 09:25:54;;;;;;;1.00;0.90;;;9.70;97.30;;;;;;4981790;28;20245;-87
2023/01/07 09:28:19;;;;;;;1.00;0.87;;;9.80;97.30;;;;;;4982347;28;20182;-85
2023/01/07 09:30:45;;;;;;;0.90;0.80;;;9.80;97.30;;;;;;4990884;28;20232;-87
2023/01/07 09:33:10;;;;;;;0.90;0.80;;;9.90;97.30;;;;;;4989694;28;20170;-86
2023/01/07 09:35:36;;;;;;;0.90;0.80;;;9.90;97.30;;;;;;4992360;28;20252;-87
2023/01/07 09:38:01;;;;;;;1.07;0.97;;;10.00;97.30;;;;;;4986384;28;20209;-87
2023/01/07 09:40:35;;;;;;;1.00;0.90;;;10.10;97.30;;;;;;4988335;28;20220;-87
2023/01/07 09:43:17;;;;;;;1.30;1.20;;;10.20;97.30;;;;;;4984707;28;20179;-91
2023/01/07 09:45:46;;;;;;;0.90;0.80;;;10.30;97.30;;;;;;4972203;28;20544;-87
2023/01/07 09:48:33;;;;;;;1.70;1.60;;;10.30;97.30;;;;;;4971737;28;20913;-87
2023/01/07 09:51:01;;;;;;;1.40;1.30;;;10.40;97.30;;;;;;4971686;28;20426;-87
2023/01/07 09:53:31;;;;;;;0.90;0.80;;;10.50;97.30;;;;;;4972392;28;20418;-88
2023/01/07 09:55:58;;;;;;;0.93;0.83;;;10.50;97.30;;;;;;4971964;28;20446;-89
2023/01/07 09:58:24;;;;;;;1.00;0.90;;;10.60;97.30;;;;;;4970955;28;20951;-88
2023/01/07 10:00:52;;;;;;;1.10;1.00;;;10.70;97.30;;;;;;4991614;28;20429;-85
2023/01/07 10:03:42;;;;;;;0.80;0.70;;;10.70;97.30;;;;;;4992296;28;20282;-86
2023/01/07 10:06:27;;;;;;;1.00;0.90;;;10.70;97.30;;;;;;5009077;22;20552;-91
2023/01/07 10:09:06;;;;;;;1.00;0.90;;;10.70;97.30;;;;;;4980042;28;20429;-89
2023/01/07 10:11:44;;;;;;;1.83;1.73;;;10.70;97.30;;;;;;4972080;28;20413;-87
2023/01/07 10:14:21;;;;;;;1.00;0.90;;;10.70;97.30;;;;;;4972200;28;20449;-88
2023/01/07 10:17:11;;;;;;;2.10;1.50;;;10.70;97.30;;;;;;4967345;28;20513;-86
2023/01/07 10:20:00;;;;;;;0.93;0.83;;;10.60;97.30;;;;;;4956965;28;20454;-87
2023/01/07 10:22:47;;;;;;;0.93;0.83;;;10.60;97.30;;;;;;4943882;29;20429;-87
2023/01/07 10:25:22;;;;;;;1.57;1.30;;;10.60;97.30;;;;;;4960244;28;20977;-87
2023/01/07 10:27:50;;;;;;;1.00;0.90;;;10.60;97.30;;;;;;4951080;29;20446;-88
2023/01/07 10:30:20;;;;;;;1.50;1.40;;;10.60;97.30;;;;;;4953915;29;20431;-86
2023/01/07 10:32:48;;;;;;;0.90;0.80;;;10.70;97.30;;;;;;4965689;28;20427;-88
2023/01/07 10:35:17;;;;;;;0.90;0.80;;;10.80;97.30;;;;;;4961932;28;20446;-86
2023/01/07 10:37:43;;;;;;;1.00;0.90;;;10.80;97.30;;;;;;4965039;28;20525;-87
2023/01/07 10:40:29;;;;;;;0.97;0.87;;;10.80;97.30;;;;;;4961676;28;21005;-87
2023/01/07 10:43:39;;;;;;;0.97;0.87;;;10.70;97.30;;;;;;4960229;28;20235;-86
2023/01/07 10:46:18;;;;;;;1.00;0.90;;;10.70;97.30;;;;;;4961455;28;20498;-87
2023/01/07 10:49:09;;;;;;;1.10;1.00;;;10.70;97.30;;;;;;4960074;28;20467;-88
2023/01/07 10:52:05;;;;;;;1.00;0.90;;;10.70;97.30;;;;;;4964437;28;20492;-87
2023/01/07 10:54:57;;;;;;;1.10;1.00;;;10.70;97.30;;;;;;4962631;28;20418;-88
2023/01/07 10:57:25;;;;;;;1.30;1.20;;;10.90;97.30;;;;;;4944349;29;20443;-88
2023/01/07 10:59:55;;;;;;;0.90;0.90;;;11.10;97.30;;;;;;4964951;28;20930;-87
2023/01/07 11:02:25;;;;;;;0.90;0.80;;;11.30;97.30;;;;;;4952273;28;20422;-88
2023/01/07 11:04:53;;;;;;;1.20;1.10;;;11.40;97.30;;;;;;4952252;28;20511;-88
2023/01/07 11:07:30;;;;;;;1.70;1.17;;;11.40;97.30;;;;;;4955344;28;21093;-87
2023/01/07 11:10:00;;;;;;;0.70;0.70;;;11.40;97.30;;;;;;4951269;29;20419;-86
2023/01/07 11:12:37;;;;;;;1.00;0.90;;;11.40;97.30;;;;;;4960153;28;20423;-88
2023/01/07 11:15:13;;;;;;;1.17;1.00;;;11.40;97.30;;;;;;4936960;28;20558;-88
2023/01/07 11:17:53;;;;;;;1.00;0.90;;;11.30;97.30;;;;;;4955841;28;20458;-88
2023/01/07 11:20:41;;;;;;;1.23;1.20;;;11.20;97.30;;;;;;4958139;28;20439;-88
2023/01/07 11:23:28;;;;;;;0.80;0.70;;;11.10;97.30;;;;;;4960280;28;20442;-87
2023/01/07 11:26:03;;;;;;;1.00;0.90;;;11.10;97.30;;;;;;4933325;29;21028;-88
2023/01/07 11:28:28;;;;;;;1.10;0.90;;;11.00;97.30;;;;;;4955284;28;20422;-88
2023/01/07 11:30:57;;;;;;;0.90;0.80;;;11.00;97.30;;;;;;4951317;28;20921;-88
2023/01/07 11:33:41;;;;;;;1.00;0.90;;;11.00;97.30;;;;;;4952809;29;20646;-88
2023/01/07 11:36:07;;;;;;;1.50;1.40;;;11.00;97.30;;;;;;4937487;29;20530;-89
2023/01/07 11:38:37;;;;;;;1.00;0.90;;;11.00;97.30;;;;;;4959058;28;20466;-91
2023/01/07 11:41:06;;;;;;;2.27;1.27;;;11.10;97.30;;;;;;4949652;29;20431;-87
2023/01/07 11:43:37;;;;;;;1.00;0.90;;;11.10;97.30;;;;;;4967353;28;20431;-89
2023/01/07 11:46:04;;;;;;;0.90;0.80;;;11.10;97.30;;;;;;4966494;28;20606;-88
2023/01/07 11:48:41;;;;;;;1.13;1.03;;;11.00;97.30;;;;;;4952567;28;20426;-89
2023/01/07 11:51:11;;;;;;;0.90;0.80;;;11.00;97.30;;;;;;4967015;28;20477;-87
2023/01/07 11:53:40;;;;;;;1.53;1.10;;;11.00;97.30;;;;;;4970106;28;20430;-87
2023/01/07 11:56:09;;;;;;;1.20;1.10;;;11.00;97.30;;;;;;4962244;28;20827;-89
2023/01/07 11:58:38;;;;;;;1.30;0.93;;;10.90;97.30;;;;;;4955104;28;20507;-90
2023/01/07 12:01:07;;;;;;;0.93;0.83;;;10.90;97.30;;;;;;4945450;29;20450;-87
2023/01/07 12:03:55;;;;;;;0.80;0.70;;;11.00;97.30;;;;;;4965379;28;20423;-89
2023/01/07 12:06:33;;;;;;;1.10;1.00;;;11.00;97.30;;;;;;4927878;29;20470;-88
2023/01/07 12:09:20;;;;;;;1.00;0.90;;;11.00;97.30;;;;;;4952330;29;20940;-88
2023/01/07 12:11:46;;;;;;;1.00;0.90;;;11.10;97.30;;;;;;4952942;28;20427;-88
2023/01/07 12:14:20;;;;;;;0.90;0.80;;;11.10;97.30;;;;;;4953277;29;20810;-87
2023/01/07 12:16:46;;;;;;;0.90;0.80;;;11.20;97.30;;;;;;4962848;28;20266;-89
2023/01/07 12:19:33;;;;;;;1.20;1.10;;;11.20;97.30;;;;;;4943195;29;20419;-88
2023/01/07 12:22:16;;;;;;;1.20;1.10;;;11.30;97.30;;;;;;4949526;28;20570;-88
2023/01/07 12:24:59;;;;;;;1.07;0.97;;;11.40;97.30;;;;;;4963608;28;20535;-88
2023/01/07 12:27:49;;;;;;;0.90;0.80;;;11.60;97.30;;;;;;4958541;28;20881;-88
2023/01/07 12:30:33;;;;;;;1.13;1.03;;;11.70;97.20;;;;;;4949327;29;20431;-87
2023/01/07 12:33:07;;;;;;;0.90;0.80;;;11.80;97.10;;;;;;4949260;29;21005;-87
2023/01/07 12:35:43;;;;;;;0.90;0.80;;;11.80;96.90;;;;;;4953800;28;20430;-87
2023/01/07 12:38:26;;;;;;;0.90;0.80;;;11.70;97.20;;;;;;4948142;28;20997;-87
2023/01/07 12:40:57;;;;;;;1.00;0.90;;;11.60;97.00;;;;;;4932806;29;20415;-87
2023/01/07 12:43:36;;;;;;;0.90;0.80;;;11.50;97.30;;;;;;4958269;28;20462;-87
2023/01/07 12:46:10;;;;;;;1.00;0.90;;;11.50;97.30;;;;;;4964381;28;20552;-89
2023/01/07 12:49:01;;;;;;;1.17;1.07;;;11.40;97.30;;;;;;4954339;29;20422;-88
2023/01/07 12:51:37;;;;;;;2.10;1.97;;;11.40;97.30;;;;;;4964097;28;20426;-88
2023/01/07 12:54:22;;;;;;;1.13;1.10;;;11.40;97.30;;;;;;4942167;28;20437;-88
2023/01/07 12:56:55;;;;;;;3.00;1.27;;;11.40;97.30;;;;;;4943562;29;20450;-88
2023/01/07 12:59:23;;;;;;;0.87;0.77;;;11.30;97.30;;;;;;4952481;29;21034;-88
2023/01/07 13:02:05;;;;;;;0.90;0.80;;;11.20;97.30;;;;;;4955641;28;20474;-89
2023/01/07 13:04:59;;;;;;;1.53;1.43;;;11.10;97.30;;;;;;4936301;29;20974;-87
2023/01/07 13:07:47;;;;;;;1.47;1.37;;;11.00;97.30;;;;;;4959679;28;20515;-88
2023/01/07 13:10:23;;;;;;;2.00;1.30;;;11.00;97.30;;;;;;4930220;29;20428;-88
2023/01/07 13:12:54;;;;;;;3.50;1.13;;;11.00;97.30;;;;;;4941724;29;20440;-88